sensor_id;sensor_type;location;lat;lon;timestamp;pressure;altitude;pressure_sealevel;temperature;humidity
57114;BME280;42994;51.606;9.988;2023-12-07T00:00:58;99433.06;;;0.95;100.00
57114;BME280;42994;51.606;9.988;2023-12-07T00:03:25;99434.03;;;0.94;100.00
57114;BME280;42994;51.606;9.988;2023-12-07T00:05:52;99453.81;;;1.00;100.00
57114;BME280;42994;51.606;9.988;2023-12-07T00:08:19;99448.44;;;1.01;100.00
57114;BME280;42994;51.606;9.988;2023-12-07T00:10:45;99444.69;;;1.04;100.00
57114;BME280;42994;51.606;9.988;2023-12-07T00:13:12;99448.53;;;1.00;100.00
57114;BME280;42994;51.606;9.988;2023-12-07T00:15:39;99453.81;;;1.00;100.00
57114;BME280;42994;51.606;9.988;2023-12-07T00:18:08;99468.94;;;0.98;100.00
57114;BME280;42994;51.606;9.988;2023-12-07T00:20:35;99460.31;;;1.07;100.00
57114;BME280;42994;51.606;9.988;2023-12-07T00:23:03;99461.75;;;1.00;100.00
57114;BME280;42994;51.606;9.988;2023-12-07T00:25:30;99449.25;;;1.02;100.00
57114;BME280;42994;51.606;9.988;2023-12-07T00:27:57;99444.69;;;1.04;100.00
57114;BME280;42994;51.606;9.988;2023-12-07T00:30:24;99448.44;;;1.01;100.00
57114;BME280;42994;51.606;9.988;2023-12-07T00:32:50;99449.03;;;1.05;100.00
57114;BME280;42994;51.606;9.988;2023-12-07T00:35:19;99461.50;;;1.03;100.00
57114;BME280;42994;51.606;9.988;2023-12-07T00:37:47;99461.50;;;1.03;100.00
57114;BME280;42994;51.606;9.988;2023-12-07T00:40:14;99451.06;;;1.01;100.00
57114;BME280;42994;51.606;9.988;2023-12-07T00:42:41;99448.03;;;1.06;100.00
57114;BME280;42994;51.606;9.988;2023-12-07T00:45:08;99464.97;;;1.03;100.00
57114;BME280;42994;51.606;9.988;2023-12-07T00:47:35;99464.88;;;1.05;100.00
57114;BME280;42994;51.606;9.988;2023-12-07T00:50:02;99460.66;;;1.02;100.00
57114;BME280;42994;51.606;9.988;2023-12-07T00:52:31;99464.63;;;1.08;100.00
57114;BME280;42994;51.606;9.988;2023-12-07T00:54:58;99467.84;;;1.00;100.00
57114;BME280;42994;51.606;9.988;2023-12-07T00:57:25;99469.53;;;1.01;100.00
57114;BME280;42994;51.606;9.988;2023-12-07T00:59:52;99473.00;;;1.02;100.00
57114;BME280;42994;51.606;9.988;2023-12-07T01:02:22;99483.56;;;1.02;100.00
57114;BME280;42994;51.606;9.988;2023-12-07T01:04:48;99484.56;;;1.01;100.00
57114;BME280;42994;51.606;9.988;2023-12-07T01:07:15;99493.06;;;1.04;100.00
57114;BME280;42994;51.606;9.988;2023-12-07T01:09:43;99497.16;;;1.08;100.00
57114;BME280;42994;51.606;9.988;2023-12-07T01:12:11;99491.97;;;1.07;100.00
57114;BME280;42994;51.606;9.988;2023-12-07T01:14:38;99499.06;;;1.06;100.00
57114;BME280;42994;51.606;9.988;2023-12-07T01:17:05;99491.75;;;1.10;100.00
57114;BME280;42994;51.606;9.988;2023-12-07T01:19:32;99497.03;;;1.10;100.00
57114;BME280;42994;51.606;9.988;2023-12-07T01:21:59;99496.91;;;1.11;100.00
57114;BME280;42994;51.606;9.988;2023-12-07T01:24:26;99505.44;;;1.15;100.00
57114;BME280;42994;51.606;9.988;2023-12-07T01:26:56;99503.03;;;1.12;100.00
57114;BME280;42994;51.606;9.988;2023-12-07T01:29:22;99504.09;;;1.09;100.00
57114;BME280;42994;51.606;9.988;2023-12-07T01:31:51;99508.44;;;1.10;100.00
57114;BME280;42994;51.606;9.988;2023-12-07T01:34:20;99508.81;;;1.17;100.00
57114;BME280;42994;51.606;9.988;2023-12-07T01:36:47;99510.94;;;1.12;100.00
57114;BME280;42994;51.606;9.988;2023-12-07T01:39:15;99505.28;;;1.17;100.00
57114;BME280;42994;51.606;9.988;2023-12-07T01:41:41;99513.59;;;1.12;100.00
57114;BME280;42994;51.606;9.988;2023-12-07T01:44:10;99502.31;;;1.10;100.00
57114;BME280;42994;51.606;9.988;2023-12-07T01:46:37;99507.47;;;1.11;100.00
57114;BME280;42994;51.606;9.988;2023-12-07T01:49:04;99513.38;;;1.15;100.00
57114;BME280;42994;51.606;9.988;2023-12-07T01:51:32;99507.47;;;1.11;100.00
57114;BME280;42994;51.606;9.988;2023-12-07T01:53:59;99514.31;;;1.14;100.00
57114;BME280;42994;51.606;9.988;2023-12-07T01:56:26;99519.81;;;1.11;100.00
57114;BME280;42994;51.606;9.988;2023-12-07T01:58:53;99517.19;;;1.11;100.00
57114;BME280;42994;51.606;9.988;2023-12-07T02:01:21;99518.03;;;1.11;100.00
57114;BME280;42994;51.606;9.988;2023-12-07T02:03:49;99516.69;;;1.06;100.00
57114;BME280;42994;51.606;9.988;2023-12-07T02:06:16;99516.47;;;1.09;100.00
57114;BME280;42994;51.606;9.988;2023-12-07T02:08:43;99512.38;;;1.16;100.00
57114;BME280;42994;51.606;9.988;2023-12-07T02:11:10;99516.94;;;1.14;100.00
57114;BME280;42994;51.606;9.988;2023-12-07T02:13:37;99516.72;;;1.17;100.00
57114;BME280;42994;51.606;9.988;2023-12-07T02:16:09;99509.75;;;1.16;100.00
57114;BME280;42994;51.606;9.988;2023-12-07T02:18:44;99510.56;;;1.17;100.00
57114;BME280;42994;51.606;9.988;2023-12-07T02:21:20;99509.75;;;1.16;100.00
57114;BME280;42994;51.606;9.988;2023-12-07T02:23:51;99509.50;;;1.08;100.00
57114;BME280;42994;51.606;9.988;2023-12-07T02:26:54;99508.19;;;1.13;100.00
57114;BME280;42994;51.606;9.988;2023-12-07T02:29:21;99496.06;;;1.11;100.00
57114;BME280;42994;51.606;9.988;2023-12-07T02:31:47;99501.59;;;1.08;100.00
57114;BME280;42994;51.606;9.988;2023-12-07T02:34:14;99511.41;;;1.06;100.00
57114;BME280;42994;51.606;9.988;2023-12-07T02:36:43;99514.19;;;1.04;100.00
57114;BME280;42994;51.606;9.988;2023-12-07T02:39:11;99513.22;;;1.05;100.00
57114;BME280;42994;51.606;9.988;2023-12-07T02:41:40;99510.56;;;1.05;100.00
57114;BME280;42994;51.606;9.988;2023-12-07T02:44:09;99522.94;;;1.05;100.00
57114;BME280;42994;51.606;9.988;2023-12-07T02:46:37;99522.94;;;1.05;100.00
57114;BME280;42994;51.606;9.988;2023-12-07T02:49:04;99522.47;;;1.11;100.00
57114;BME280;42994;51.606;9.988;2023-12-07T02:51:30;99523.78;;;1.05;100.00
57114;BME280;42994;51.606;9.988;2023-12-07T02:53:57;99522.22;;;1.03;100.00
57114;BME280;42994;51.606;9.988;2023-12-07T02:56:24;99530.25;;;1.01;100.00
57114;BME280;42994;51.606;9.988;2023-12-07T02:58:51;99536.47;;;1.00;100.00
57114;BME280;42994;51.606;9.988;2023-12-07T03:01:19;99540.31;;;0.96;100.00
57114;BME280;42994;51.606;9.988;2023-12-07T03:03:46;99534.66;;;0.89;100.00
57114;BME280;42994;51.606;9.988;2023-12-07T03:06:13;99541.41;;;0.93;100.00
57114;BME280;42994;51.606;9.988;2023-12-07T03:08:41;99543.56;;;0.88;100.00
57114;BME280;42994;51.606;9.988;2023-12-07T03:11:08;99556.16;;;0.96;100.00
57114;BME280;42994;51.606;9.988;2023-12-07T03:13:35;99548.13;;;0.98;100.00
57114;BME280;42994;51.606;9.988;2023-12-07T03:16:07;99556.91;;;1.09;100.00
57114;BME280;42994;51.606;9.988;2023-12-07T03:18:35;99557.75;;;1.10;100.00
57114;BME280;42994;51.606;9.988;2023-12-07T03:21:02;99555.34;;;1.07;100.00
57114;BME280;42994;51.606;9.988;2023-12-07T03:23:29;99548.63;;;1.03;100.00
57114;BME280;42994;51.606;9.988;2023-12-07T03:25:56;99558.69;;;0.98;100.00
57114;BME280;42994;51.606;9.988;2023-12-07T03:28:23;99562.88;;;1.00;100.00
57114;BME280;42994;51.606;9.988;2023-12-07T03:30:49;99566.94;;;0.93;100.00
57114;BME280;42994;51.606;9.988;2023-12-07T03:33:16;99566.84;;;0.94;100.00
57114;BME280;42994;51.606;9.988;2023-12-07T03:35:44;99578.09;;;0.96;100.00
57114;BME280;42994;51.606;9.988;2023-12-07T03:38:11;99569.97;;;1.00;100.00
57114;BME280;42994;51.606;9.988;2023-12-07T03:40:38;99574.31;;;1.01;100.00
57114;BME280;42994;51.606;9.988;2023-12-07T03:43:05;99577.78;;;1.01;100.00
57114;BME280;42994;51.606;9.988;2023-12-07T03:45:32;99579.59;;;1.01;100.00
57114;BME280;42994;51.606;9.988;2023-12-07T03:47:58;99578.88;;;0.99;100.00
57114;BME280;42994;51.606;9.988;2023-12-07T03:50:25;99582.22;;;1.01;100.00
57114;BME280;42994;51.606;9.988;2023-12-07T03:52:54;99586.19;;;1.06;100.00
57114;BME280;42994;51.606;9.988;2023-12-07T03:55:21;99586.53;;;1.02;100.00
57114;BME280;42994;51.606;9.988;2023-12-07T03:57:47;99594.94;;;1.07;100.00
57114;BME280;42994;51.606;9.988;2023-12-07T04:00:15;99594.44;;;1.02;100.00
57114;BME280;42994;51.606;9.988;2023-12-07T04:02:42;99588.44;;;1.00;100.00
57114;BME280;42994;51.606;9.988;2023-12-07T04:05:09;99589.16;;;1.02;100.00
57114;BME280;42994;51.606;9.988;2023-12-07T04:07:37;99594.44;;;1.02;100.00
57114;BME280;42994;51.606;9.988;2023-12-07T04:10:07;99596.50;;;1.09;100.00
57114;BME280;42994;51.606;9.988;2023-12-07T04:12:34;99582.69;;;1.06;100.00
57114;BME280;42994;51.606;9.988;2023-12-07T04:15:01;99593.84;;;1.09;100.00
57114;BME280;42994;51.606;9.988;2023-12-07T04:17:28;99587.13;;;1.05;100.00
57114;BME280;42994;51.606;9.988;2023-12-07T04:19:55;99596.63;;;1.08;100.00
57114;BME280;42994;51.606;9.988;2023-12-07T04:22:21;99587.97;;;1.06;100.00
57114;BME280;42994;51.606;9.988;2023-12-07T04:24:48;99579.59;;;1.01;100.00
57114;BME280;42994;51.606;9.988;2023-12-07T04:27:16;99594.00;;;1.08;100.00
57114;BME280;42994;51.606;9.988;2023-12-07T04:29:43;99590.88;;;1.03;100.00
57114;BME280;42994;51.606;9.988;2023-12-07T04:32:10;99589.06;;;1.03;100.00
57114;BME280;42994;51.606;9.988;2023-12-07T04:34:36;99602.16;;;1.05;100.00
57114;BME280;42994;51.606;9.988;2023-12-07T04:37:03;99581.75;;;1.07;100.00
57114;BME280;42994;51.606;9.988;2023-12-07T04:39:31;99593.03;;;1.09;100.00
57114;BME280;42994;51.606;9.988;2023-12-07T04:41:58;99596.03;;;1.04;100.00
57114;BME280;42994;51.606;9.988;2023-12-07T04:44:26;99594.25;;;1.16;100.00
57114;BME280;42994;51.606;9.988;2023-12-07T04:46:54;99589.88;;;1.04;100.00
57114;BME280;42994;51.606;9.988;2023-12-07T04:49:20;99589.88;;;1.04;100.00
57114;BME280;42994;51.606;9.988;2023-12-07T04:51:47;99595.88;;;1.06;100.00
57114;BME280;42994;51.606;9.988;2023-12-07T04:54:14;99588.34;;;1.01;100.00
57114;BME280;42994;51.606;9.988;2023-12-07T04:56:41;99587.50;;;1.01;100.00
57114;BME280;42994;51.606;9.988;2023-12-07T04:59:09;99584.59;;;1.04;100.00
57114;BME280;42994;51.606;9.988;2023-12-07T05:01:37;99589.88;;;1.04;100.00
57114;BME280;42994;51.606;9.988;2023-12-07T05:04:04;99598.78;;;1.03;100.00
57114;BME280;42994;51.606;9.988;2023-12-07T05:06:31;99595.44;;;1.01;100.00
57114;BME280;42994;51.606;9.988;2023-12-07T05:08:59;99590.00;;;1.02;100.00
57114;BME280;42994;51.606;9.988;2023-12-07T05:11:26;99590.38;;;1.09;100.00
57114;BME280;42994;51.606;9.988;2023-12-07T05:13:53;99594.13;;;1.06;100.00
57114;BME280;42994;51.606;9.988;2023-12-07T05:16:19;99593.63;;;1.01;100.00
57114;BME280;42994;51.606;9.988;2023-12-07T05:18:48;99593.13;;;0.96;100.00
57114;BME280;42994;51.606;9.988;2023-12-07T05:21:15;99587.94;;;0.94;100.00
57114;BME280;42994;51.606;9.988;2023-12-07T05:23:41;99588.56;;;0.98;100.00
57114;BME280;42994;51.606;9.988;2023-12-07T05:26:08;99582.22;;;1.01;100.00
57114;BME280;42994;51.606;9.988;2023-12-07T05:28:36;99578.50;;;1.03;100.00
57114;BME280;42994;51.606;9.988;2023-12-07T05:31:03;99582.69;;;1.06;100.00
57114;BME280;42994;51.606;9.988;2023-12-07T05:33:32;99570.56;;;1.03;100.00
57114;BME280;42994;51.606;9.988;2023-12-07T05:36:00;99576.47;;;1.07;100.00
57114;BME280;42994;51.606;9.988;2023-12-07T05:38:28;99569.75;;;1.03;100.00
57114;BME280;42994;51.606;9.988;2023-12-07T05:40:55;99571.41;;;1.04;100.00
57114;BME280;42994;51.606;9.988;2023-12-07T05:43:22;99568.88;;;1.02;100.00
57114;BME280;42994;51.606;9.988;2023-12-07T05:45:49;99574.06;;;1.04;100.00
57114;BME280;42994;51.606;9.988;2023-12-07T05:48:15;99575.34;;;0.98;100.00
57114;BME280;42994;51.606;9.988;2023-12-07T05:50:42;99571.66;;;1.01;100.00
57114;BME280;42994;51.606;9.988;2023-12-07T05:53:10;99580.53;;;1.11;100.00
57114;BME280;42994;51.606;9.988;2023-12-07T05:55:38;99571.56;;;1.13;100.00
57114;BME280;42994;51.606;9.988;2023-12-07T05:58:05;99584.72;;;1.02;100.00
57114;BME280;42994;51.606;9.988;2023-12-07T06:00:31;99574.75;;;0.94;100.00
57114;BME280;42994;51.606;9.988;2023-12-07T06:02:58;99571.53;;;1.02;100.00
57114;BME280;42994;51.606;9.988;2023-12-07T06:05:25;99571.41;;;1.04;100.00
57114;BME280;42994;51.606;9.988;2023-12-07T06:07:52;99575.97;;;1.02;100.00
57114;BME280;42994;51.606;9.988;2023-12-07T06:10:22;99585.81;;;1.00;100.00
57114;BME280;42994;51.606;9.988;2023-12-07T06:12:49;99588.34;;;1.01;100.00
57114;BME280;42994;51.606;9.988;2023-12-07T06:15:16;99592.53;;;1.04;100.00
57114;BME280;42994;51.606;9.988;2023-12-07T06:17:42;99588.13;;;1.04;100.00
57114;BME280;42994;51.606;9.988;2023-12-07T06:20:10;99583.66;;;1.05;100.00
57114;BME280;42994;51.606;9.988;2023-12-07T06:22:37;99587.97;;;1.06;100.00
57114;BME280;42994;51.606;9.988;2023-12-07T06:25:04;99589.28;;;1.00;100.00
57114;BME280;42994;51.606;9.988;2023-12-07T06:27:35;99592.41;;;1.05;100.00
57114;BME280;42994;51.606;9.988;2023-12-07T06:30:02;99590.50;;;1.07;100.00
57114;BME280;42994;51.606;9.988;2023-12-07T06:32:31;99590.75;;;1.04;100.00
57114;BME280;42994;51.606;9.988;2023-12-07T06:34:58;99586.31;;;1.05;100.00
57114;BME280;42994;51.606;9.988;2023-12-07T06:37:25;99583.56;;;1.06;100.00
57114;BME280;42994;51.606;9.988;2023-12-07T06:39:52;99587.25;;;1.04;100.00
57114;BME280;42994;51.606;9.988;2023-12-07T06:42:19;99582.06;;;1.02;100.00
57114;BME280;42994;51.606;9.988;2023-12-07T06:44:48;99590.97;;;1.01;100.00
57114;BME280;42994;51.606;9.988;2023-12-07T06:47:15;99599.28;;;1.08;100.00
57114;BME280;42994;51.606;9.988;2023-12-07T06:49:42;99599.41;;;1.06;100.00
57114;BME280;42994;51.606;9.988;2023-12-07T06:52:09;99591.59;;;1.05;100.00
57114;BME280;42994;51.606;9.988;2023-12-07T06:54:36;99594.56;;;1.00;100.00
57114;BME280;42994;51.606;9.988;2023-12-07T06:57:04;99597.34;;;0.99;100.00
57114;BME280;42994;51.606;9.988;2023-12-07T06:59:32;99609.34;;;1.03;100.00
57114;BME280;42994;51.606;9.988;2023-12-07T07:02:01;99610.78;;;1.07;100.00
57114;BME280;42994;51.606;9.988;2023-12-07T07:04:28;99615.47;;;1.03;100.00
57114;BME280;42994;51.606;9.988;2023-12-07T07:06:55;99617.25;;;1.03;100.00
57114;BME280;42994;51.606;9.988;2023-12-07T07:09:22;99609.69;;;0.98;100.00
57114;BME280;42994;51.606;9.988;2023-12-07T07:11:48;99608.63;;;1.01;100.00
57114;BME280;42994;51.606;9.988;2023-12-07T07:14:17;99610.91;;;1.05;100.00
57114;BME280;42994;51.606;9.988;2023-12-07T07:16:44;99600.13;;;1.08;100.00
57114;BME280;42994;51.606;9.988;2023-12-07T07:19:13;99602.38;;;1.02;100.00
57114;BME280;42994;51.606;9.988;2023-12-07T07:21:42;99600.22;;;1.07;100.00
57114;BME280;42994;51.606;9.988;2023-12-07T07:24:09;99611.41;;;1.10;100.00
57114;BME280;42994;51.606;9.988;2023-12-07T07:26:36;99605.63;;;1.17;100.00
57114;BME280;42994;51.606;9.988;2023-12-07T07:29:04;99602.88;;;1.18;100.00
57114;BME280;42994;51.606;9.988;2023-12-07T07:31:31;99593.63;;;1.12;100.00
57114;BME280;42994;51.606;9.988;2023-12-07T07:33:58;99593.13;;;1.07;100.00
57114;BME280;42994;51.606;9.988;2023-12-07T07:36:27;99606.81;;;1.01;100.00
57114;BME280;42994;51.606;9.988;2023-12-07T07:38:54;99618.69;;;0.95;100.00
57114;BME280;42994;51.606;9.988;2023-12-07T07:41:21;99631.66;;;0.99;100.00
57114;BME280;42994;51.606;9.988;2023-12-07T07:43:48;99637.16;;;0.95;100.00
57114;BME280;42994;51.606;9.988;2023-12-07T07:46:16;99643.16;;;0.98;100.00
57114;BME280;42994;51.606;9.988;2023-12-07T07:48:42;99644.00;;;0.98;100.00
57114;BME280;42994;51.606;9.988;2023-12-07T07:51:09;99655.41;;;0.99;100.00
57114;BME280;42994;51.606;9.988;2023-12-07T07:53:37;99644.97;;;0.97;100.00
57114;BME280;42994;51.606;9.988;2023-12-07T07:56:04;99659.22;;;0.94;100.00
57114;BME280;42994;51.606;9.988;2023-12-07T07:58:31;99665.47;;;0.93;100.00
57114;BME280;42994;51.606;9.988;2023-12-07T08:00:58;99661.16;;;1.04;100.00
57114;BME280;42994;51.606;9.988;2023-12-07T08:03:25;99658.78;;;1.01;100.00
57114;BME280;42994;51.606;9.988;2023-12-07T08:05:52;99645.34;;;1.04;100.00
57114;BME280;42994;51.606;9.988;2023-12-07T08:08:18;99650.88;;;1.01;100.00
57114;BME280;42994;51.606;9.988;2023-12-07T08:10:47;99650.13;;;0.99;100.00
57114;BME280;42994;51.606;9.988;2023-12-07T08:13:13;99649.44;;;1.08;100.00
57114;BME280;42994;51.606;9.988;2023-12-07T08:15:40;99653.63;;;1.10;100.00
57114;BME280;42994;51.606;9.988;2023-12-07T08:18:07;99645.25;;;1.17;100.00
57114;BME280;42994;51.606;9.988;2023-12-07T08:20:34;99636.88;;;1.23;100.00
57114;BME280;42994;51.606;9.988;2023-12-07T08:23:01;99629.19;;;1.20;100.00
57114;BME280;42994;51.606;9.988;2023-12-07T08:25:27;99620.66;;;1.16;100.00
57114;BME280;42994;51.606;9.988;2023-12-07T08:27:56;99632.53;;;1.22;100.00
57114;BME280;42994;51.606;9.988;2023-12-07T08:30:22;99621.97;;;1.22;100.00
57114;BME280;42994;51.606;9.988;2023-12-07T08:32:49;99625.34;;;1.24;100.00
57114;BME280;42994;51.606;9.988;2023-12-07T08:35:16;99624.41;;;1.25;100.00
57114;BME280;42994;51.606;9.988;2023-12-07T08:37:43;99633.97;;;1.26;100.00
57114;BME280;42994;51.606;9.988;2023-12-07T08:40:10;99634.47;;;1.20;100.00
57114;BME280;42994;51.606;9.988;2023-12-07T08:42:40;99634.97;;;1.25;100.00
57114;BME280;42994;51.606;9.988;2023-12-07T08:45:10;99634.59;;;1.29;100.00
57114;BME280;42994;51.606;9.988;2023-12-07T08:47:37;99637.22;;;1.18;100.00
57114;BME280;42994;51.606;9.988;2023-12-07T08:50:04;99631.34;;;1.26;100.00
57114;BME280;42994;51.606;9.988;2023-12-07T08:52:33;99641.56;;;1.19;100.00
57114;BME280;42994;51.606;9.988;2023-12-07T08:54:59;99649.81;;;1.14;100.00
57114;BME280;42994;51.606;9.988;2023-12-07T08:57:27;99640.31;;;1.12;100.00
57114;BME280;42994;51.606;9.988;2023-12-07T08:59:54;99649.59;;;1.18;100.00
57114;BME280;42994;51.606;9.988;2023-12-07T09:02:22;99655.25;;;1.24;100.00
57114;BME280;42994;51.606;9.988;2023-12-07T09:04:49;99655.72;;;1.29;100.00
57114;BME280;42994;51.606;9.988;2023-12-07T09:07:17;99644.09;;;1.32;100.00
57114;BME280;42994;51.606;9.988;2023-12-07T09:09:44;99654.56;;;1.33;100.00
57114;BME280;42994;51.606;9.988;2023-12-07T09:12:12;99661.50;;;1.34;100.00
57114;BME280;42994;51.606;9.988;2023-12-07T09:14:39;99658.25;;;1.31;100.00
57114;BME280;42994;51.606;9.988;2023-12-07T09:17:06;99654.56;;;1.33;100.00
57114;BME280;42994;51.606;9.988;2023-12-07T09:19:34;99657.06;;;1.35;100.00
57114;BME280;42994;51.606;9.988;2023-12-07T09:22:01;99661.78;;;1.43;100.00
57114;BME280;42994;51.606;9.988;2023-12-07T09:24:28;99658.88;;;1.46;100.00
57114;BME280;42994;51.606;9.988;2023-12-07T09:26:55;99651.31;;;1.41;100.00
57114;BME280;42994;51.606;9.988;2023-12-07T09:29:22;99655.19;;;1.48;100.00
57114;BME280;42994;51.606;9.988;2023-12-07T09:31:48;99652.41;;;1.50;100.00
57114;BME280;42994;51.606;9.988;2023-12-07T09:34:15;99656.72;;;1.51;100.00
57114;BME280;42994;51.606;9.988;2023-12-07T09:36:45;99666.97;;;1.56;100.00
57114;BME280;42994;51.606;9.988;2023-12-07T09:39:12;99662.63;;;1.54;100.00
57114;BME280;42994;51.606;9.988;2023-12-07T09:41:39;99664.19;;;1.57;100.00
57114;BME280;42994;51.606;9.988;2023-12-07T09:44:08;99659.38;;;1.62;100.00
57114;BME280;42994;51.606;9.988;2023-12-07T09:46:35;99654.09;;;1.62;100.00
57114;BME280;42994;51.606;9.988;2023-12-07T09:49:01;99651.22;;;1.65;100.00
57114;BME280;42994;51.606;9.988;2023-12-07T09:51:28;99643.78;;;1.70;100.00
57114;BME280;42994;51.606;9.988;2023-12-07T09:54:00;99643.91;;;1.69;100.00
57114;BME280;42994;51.606;9.988;2023-12-07T09:56:28;99631.41;;;1.71;100.00
57114;BME280;42994;51.606;9.988;2023-12-07T09:58:57;99620.50;;;1.76;100.00
57114;BME280;42994;51.606;9.988;2023-12-07T10:01:28;99624.34;;;1.83;100.00
57114;BME280;42994;51.606;9.988;2023-12-07T10:04:16;99614.81;;;1.80;100.00
57114;BME280;42994;51.606;9.988;2023-12-07T10:06:43;99609.81;;;1.77;100.00
57114;BME280;42994;51.606;9.988;2023-12-07T10:09:12;99605.13;;;1.81;100.00
57114;BME280;42994;51.606;9.988;2023-12-07T10:11:40;99607.16;;;1.77;100.00
57114;BME280;42994;51.606;9.988;2023-12-07T10:14:08;99592.22;;;1.87;100.00
57114;BME280;42994;51.606;9.988;2023-12-07T10:16:36;99591.41;;;1.87;100.00
57114;BME280;42994;51.606;9.988;2023-12-07T10:19:13;99586.22;;;1.85;100.00
57114;BME280;42994;51.606;9.988;2023-12-07T10:21:43;99586.94;;;1.87;100.00
57114;BME280;42994;51.606;9.988;2023-12-07T10:24:10;99586.59;;;1.92;100.00
57114;BME280;42994;51.606;9.988;2023-12-07T10:26:39;99583.69;;;1.95;100.00
57114;BME280;42994;51.606;9.988;2023-12-07T10:29:06;99577.69;;;1.93;100.00
57114;BME280;42994;51.606;9.988;2023-12-07T10:31:33;99589.94;;;1.94;100.00
57114;BME280;42994;51.606;9.988;2023-12-07T10:34:00;99587.53;;;2.02;100.00
57114;BME280;42994;51.606;9.988;2023-12-07T10:36:27;99595.25;;;1.94;100.00
57114;BME280;42994;51.606;9.988;2023-12-07T10:38:54;99585.63;;;1.93;100.00
57114;BME280;42994;51.606;9.988;2023-12-07T10:41:23;99597.50;;;1.99;100.00
57114;BME280;42994;51.606;9.988;2023-12-07T10:43:54;99600.75;;;2.02;100.00
57114;BME280;42994;51.606;9.988;2023-12-07T10:46:24;99603.50;;;2.01;100.00
57114;BME280;42994;51.606;9.988;2023-12-07T10:48:59;99593.28;;;2.07;100.00
57114;BME280;42994;51.606;9.988;2023-12-07T10:51:30;99585.94;;;2.11;100.00
57114;BME280;42994;51.606;9.988;2023-12-07T10:54:02;99580.91;;;2.08;100.00
57114;BME280;42994;51.606;9.988;2023-12-07T10:56:35;99572.25;;;2.06;100.00
57114;BME280;42994;51.606;9.988;2023-12-07T10:59:08;99570.47;;;2.06;100.00
57114;BME280;42994;51.606;9.988;2023-12-07T11:01:38;99565.91;;;2.08;100.00
57114;BME280;42994;51.606;9.988;2023-12-07T11:04:05;99571.78;;;2.01;100.00
57114;BME280;42994;51.606;9.988;2023-12-07T11:06:33;99571.91;;;1.99;100.00
57114;BME280;42994;51.606;9.988;2023-12-07T11:09:04;99569.28;;;1.99;100.00
57114;BME280;42994;51.606;9.988;2023-12-07T11:11:38;99565.66;;;2.00;100.00
57114;BME280;42994;51.606;9.988;2023-12-07T11:14:08;99570.31;;;2.08;100.00
57114;BME280;42994;51.606;9.988;2023-12-07T11:16:38;99563.38;;;2.07;100.00
57114;BME280;42994;51.606;9.988;2023-12-07T11:22:07;99558.00;;;1.97;100.00
57114;BME280;42994;51.606;9.988;2023-12-07T11:24:35;99560.00;;;2.05;100.00
57114;BME280;42994;51.606;9.988;2023-12-07T11:27:03;99556.50;;;2.04;100.00
57114;BME280;42994;51.606;9.988;2023-12-07T11:29:32;99555.34;;;1.97;100.00
57114;BME280;42994;51.606;9.988;2023-12-07T11:32:00;99547.50;;;2.07;100.00
57114;BME280;42994;51.606;9.988;2023-12-07T11:34:35;99549.16;;;2.08;100.00
57114;BME280;42994;51.606;9.988;2023-12-07T11:37:03;99543.16;;;2.06;100.00
57114;BME280;42994;51.606;9.988;2023-12-07T11:39:34;99543.16;;;2.06;100.00
57114;BME280;42994;51.606;9.988;2023-12-07T11:42:06;99534.41;;;2.05;100.00
57114;BME280;42994;51.606;9.988;2023-12-07T11:44:37;99529.81;;;2.07;100.00
57114;BME280;42994;51.606;9.988;2023-12-07T11:47:04;99517.81;;;2.03;100.00
57114;BME280;42994;51.606;9.988;2023-12-07T11:49:31;99523.66;;;2.18;100.00
57114;BME280;42994;51.606;9.988;2023-12-07T11:51:58;99515.84;;;2.17;100.00
57114;BME280;42994;51.606;9.988;2023-12-07T11:54:26;99523.06;;;2.15;100.00
57114;BME280;42994;51.606;9.988;2023-12-07T11:56:53;99514.78;;;2.19;100.00
57114;BME280;42994;51.606;9.988;2023-12-07T11:59:20;99512.88;;;2.10;100.00
57114;BME280;42994;51.606;9.988;2023-12-07T12:01:49;99510.31;;;2.20;100.00
57114;BME280;42994;51.606;9.988;2023-12-07T12:04:16;99498.44;;;2.14;100.00
57114;BME280;42994;51.606;9.988;2023-12-07T12:06:43;99493.03;;;2.16;100.00
57114;BME280;42994;51.606;9.988;2023-12-07T12:09:12;99492.75;;;2.19;100.00
57114;BME280;42994;51.606;9.988;2023-12-07T12:11:44;99494.63;;;2.28;100.00
57114;BME280;42994;51.606;9.988;2023-12-07T12:14:12;99498.50;;;2.24;100.00
57114;BME280;42994;51.606;9.988;2023-12-07T12:16:39;99507.53;;;2.21;100.00
57114;BME280;42994;51.606;9.988;2023-12-07T12:19:08;99501.16;;;2.24;100.00
57114;BME280;42994;51.606;9.988;2023-12-07T12:21:35;99489.09;;;2.31;100.00
57114;BME280;42994;51.606;9.988;2023-12-07T12:24:04;99488.50;;;2.27;100.00
57114;BME280;42994;51.606;9.988;2023-12-07T12:26:34;99476.63;;;2.22;100.00
57114;BME280;42994;51.606;9.988;2023-12-07T12:29:01;99480.13;;;2.22;100.00
57114;BME280;42994;51.606;9.988;2023-12-07T12:31:31;99481.41;;;2.28;100.00
57114;BME280;42994;51.606;9.988;2023-12-07T12:34:00;99474.22;;;2.30;100.00
57114;BME280;42994;51.606;9.988;2023-12-07T12:36:29;99475.88;;;2.31;100.00
57114;BME280;42994;51.606;9.988;2023-12-07T12:38:56;99464.53;;;2.40;100.00
57114;BME280;42994;51.606;9.988;2023-12-07T12:41:22;99472.69;;;2.48;100.00
57114;BME280;42994;51.606;9.988;2023-12-07T12:43:51;99470.03;;;2.48;100.00
57114;BME280;42994;51.606;9.988;2023-12-07T12:46:18;99467.19;;;2.61;100.00
57114;BME280;42994;51.606;9.988;2023-12-07T12:48:55;99454.13;;;2.69;100.00
57114;BME280;42994;51.606;9.988;2023-12-07T12:51:24;99447.88;;;2.71;100.00
57114;BME280;42994;51.606;9.988;2023-12-07T12:53:54;99434.22;;;2.75;100.00
57114;BME280;42994;51.606;9.988;2023-12-07T12:56:21;99435.44;;;2.61;100.00
57114;BME280;42994;51.606;9.988;2023-12-07T12:58:49;99432.22;;;2.58;100.00
57114;BME280;42994;51.606;9.988;2023-12-07T13:01:16;99426.22;;;2.56;100.00
57114;BME280;42994;51.606;9.988;2023-12-07T13:03:44;99415.16;;;2.50;100.00
57114;BME280;42994;51.606;9.988;2023-12-07T13:06:12;99409.16;;;2.48;100.00